Time;durP1;ratioP1;P1;durP2;ratioP2;P2;SDS_P1;SDS_P2;PMS_P1;PMS_P2;Temp;Humidity;BMP_temperature;BMP_pressure;BME280_temperature;BME280_humidity;BME280_pressure;Samples;Min_cycle;Max_cycle;Signal;HPM_P1;HPM_P2
2022/10/17 00:00:41;;;;;;;9.13;7.35;;;;;;;14.08;83.48;101490.06;4916787;29;20028;-94
2022/10/17 00:03:06;;;;;;;10.05;7.40;;;;;;;14.06;82.58;101494.59;4900452;29;20016;-93
2022/10/17 00:05:31;;;;;;;9.35;7.28;;;;;;;14.07;83.35;101491.88;4900120;29;20028;-94
2022/10/17 00:07:57;;;;;;;8.50;6.90;;;;;;;14.06;82.48;101498.13;4899864;29;20107;-93
2022/10/17 00:10:22;;;;;;;8.20;7.28;;;;;;;14.05;82.22;101504.38;4900371;29;20039;-93
2022/10/17 00:12:50;;;;;;;9.98;6.60;;;;;;;14.02;82.94;101500.03;4916719;29;20024;-93
2022/10/17 00:15:18;;;;;;;8.43;6.70;;;;;;;14.02;82.92;101505.38;4917031;29;20084;-94
2022/10/17 00:17:43;;;;;;;11.70;7.00;;;;;;;14.08;85.14;101506.88;4900090;29;20056;-94
2022/10/17 00:20:10;;;;;;;12.13;7.50;;;;;;;14.13;85.01;101504.03;4916997;29;20063;-94
2022/10/17 00:22:35;;;;;;;10.90;7.55;;;;;;;14.13;84.79;101496.03;4900381;29;20028;-94
2022/10/17 00:25:00;;;;;;;8.48;6.80;;;;;;;14.08;83.86;101487.41;4899819;29;20028;-93
2022/10/17 00:27:26;;;;;;;11.32;7.60;;;;;;;14.11;84.68;101493.47;4916611;29;20060;-93
2022/10/17 00:29:51;;;;;;;8.48;7.28;;;;;;;14.19;85.36;101496.66;4916906;29;20108;-93
2022/10/17 00:32:18;;;;;;;9.30;7.75;;;;;;;14.20;85.94;101487.72;4916669;29;20099;-94
2022/10/17 00:34:44;;;;;;;8.70;7.25;;;;;;;14.20;85.76;101473.56;4916782;29;20043;-94
2022/10/17 00:37:09;;;;;;;11.40;8.35;;;;;;;14.27;86.03;101472.38;4901309;29;20028;-94
2022/10/17 00:39:35;;;;;;;8.98;7.80;;;;;;;14.29;86.17;101468.69;4920533;29;20080;-94
2022/10/17 00:42:00;;;;;;;10.75;7.57;;;;;;;14.40;86.51;101476.19;4903238;29;20031;-93
2022/10/17 00:44:28;;;;;;;9.38;7.68;;;;;;;14.45;86.60;101470.66;4920238;29;20032;-93
2022/10/17 00:46:58;;;;;;;13.15;8.25;;;;;;;14.52;87.07;101474.81;4904040;29;20083;-93
2022/10/17 00:49:26;;;;;;;10.48;8.00;;;;;;;14.50;86.67;101477.53;4903421;29;20477;-94
2022/10/17 00:51:54;;;;;;;10.02;8.25;;;;;;;14.51;86.85;101467.75;4920167;29;20424;-93
2022/10/17 00:54:23;;;;;;;10.80;7.35;;;;;;;14.55;87.02;101461.38;4919987;29;20055;-93
2022/10/17 00:56:50;;;;;;;10.32;8.48;;;;;;;14.58;86.95;101463.88;4903362;29;20024;-94
2022/10/17 00:59:18;;;;;;;12.48;8.75;;;;;;;14.55;86.82;101461.38;4919868;29;20076;-94
2022/10/17 01:01:50;;;;;;;9.10;8.20;;;;;;;14.69;87.08;101476.69;4920673;29;20039;-93
2022/10/17 01:04:16;;;;;;;;;;;;;;;14.83;84.69;101484.00;4903129;29;20032;-94
2022/10/17 01:06:41;;;;;;;11.10;8.30;;;;;;;14.73;86.37;101471.13;4920131;29;19915;-94
2022/10/17 01:09:07;;;;;;;13.38;8.50;;;;;;;14.69;86.63;101474.88;4902797;29;20469;-94
2022/10/17 01:11:35;;;;;;;9.43;7.78;;;;;;;14.70;86.06;101481.06;4919606;29;20059;-94
2022/10/17 01:14:10;;;;;;;11.57;8.20;;;;;;;14.65;86.88;101473.31;4902806;29;20488;-94
2022/10/17 01:16:42;;;;;;;9.27;7.60;;;;;;;14.66;86.11;101471.50;4919859;29;20495;-94
2022/10/17 01:19:23;;;;;;;11.77;9.35;;;;;;;14.65;86.86;101473.31;4906282;29;20048;-94
2022/10/17 01:22:00;;;;;;;13.10;8.88;;;;;;;14.66;86.43;101476.81;4902843;29;20028;-94
2022/10/17 01:24:53;;;;;;;10.43;8.75;;;;;;;14.59;86.40;101465.59;4919497;29;20035;-94
2022/10/17 01:27:30;;;;;;;12.38;8.43;;;;;;;14.61;86.40;101471.72;4920135;29;20030;-94
2022/10/17 01:30:28;;;;;;;10.68;8.43;;;;;;;14.69;86.93;101474.88;4919974;29;20578;-94
2022/10/17 01:33:58;;;;;;;12.20;8.88;;;;;;;14.73;86.30;101476.44;4902910;29;20031;-94
2022/10/17 01:36:46;;;;;;;13.75;9.00;;;;;;;14.64;87.06;101460.94;4839032;29;20045;-94
2022/10/17 01:39:19;;;;;;;17.00;9.48;;;;;;;14.70;87.39;101465.97;4842422;29;20557;-94
2022/10/17 01:41:59;;;;;;;13.60;9.75;;;;;;;14.69;87.53;101450.94;4907469;29;20120;-94
2022/10/17 01:44:54;;;;;;;12.10;9.35;;;;;;;14.78;87.35;101469.13;4919042;29;20082;-94
2022/10/17 01:47:25;;;;;;;12.07;8.93;;;;;;;14.75;87.49;101455.09;4901776;29;20076;-94
2022/10/17 01:49:53;;;;;;;14.02;9.77;;;;;;;14.81;87.97;101462.78;4901890;29;20032;-95
2022/10/17 01:52:26;;;;;;;14.38;9.88;;;;;;;14.78;87.93;101462.91;4901870;29;20111;-94
2022/10/17 01:54:55;;;;;;;13.98;9.88;;;;;;;14.75;88.32;101449.78;4901832;29;20063;-94
2022/10/17 01:57:33;;;;;;;14.00;9.90;;;;;;;14.83;88.10;101457.38;4901827;29;20032;-95
2022/10/17 02:00:01;;;;;;;12.80;9.30;;;;;;;14.81;88.36;101457.44;4918678;29;20119;-94
2022/10/17 02:02:27;;;;;;;16.08;11.02;;;;;;;14.83;88.67;101460.03;4918758;29;20465;-94
2022/10/17 02:04:56;;;;;;;16.33;10.65;;;;;;;14.86;88.65;101454.56;4901566;29;20119;-94
2022/10/17 02:07:21;;;;;;;12.15;9.40;;;;;;;14.91;88.13;101460.53;4918615;29;20032;-94
2022/10/17 02:09:47;;;;;;;14.73;10.75;;;;;;;14.85;88.66;101439.53;4918638;29;20028;-94
2022/10/17 02:12:15;;;;;;;19.83;10.27;;;;;;;14.94;88.31;101453.25;4918592;29;20480;-94
2022/10/17 02:14:54;;;;;;;14.73;9.70;;;;;;;14.89;88.10;101449.09;4901921;29;20063;-94
2022/10/17 02:17:56;;;;;;;13.55;10.88;;;;;;;14.90;87.81;101446.34;4918442;29;20112;-94
2022/10/17 02:20:33;;;;;;;13.65;10.45;;;;;;;14.88;88.48;101445.59;4918833;29;20118;-95
2022/10/17 02:23:24;;;;;;;13.45;9.57;;;;;;;14.89;88.23;101447.31;4918383;29;20024;-94
2022/10/17 02:25:58;;;;;;;12.07;9.73;;;;;;;14.78;88.09;101436.28;4900872;29;20040;-94
2022/10/17 02:28:54;;;;;;;14.13;9.85;;;;;;;14.87;88.22;101446.50;4901188;29;20034;-94
2022/10/17 02:31:24;;;;;;;13.73;10.13;;;;;;;14.84;88.39;101445.81;4901549;29;20485;-94
2022/10/17 02:33:57;;;;;;;14.02;10.45;;;;;;;14.84;88.57;101443.16;4918302;29;20035;-94
2022/10/17 02:36:29;;;;;;;12.95;9.55;;;;;;;14.83;88.58;101441.41;4918077;29;20476;-94
2022/10/17 02:38:56;;;;;;;13.52;10.57;;;;;;;14.87;88.79;101442.97;4917917;29;20028;-94
2022/10/17 02:41:23;;;;;;;13.73;10.00;;;;;;;14.86;88.56;101449.25;4885385;29;20036;-94
2022/10/17 02:43:49;;;;;;;12.95;10.40;;;;;;;14.81;88.95;101446.81;4917993;29;20485;-94
2022/10/17 02:46:20;;;;;;;13.00;9.98;;;;;;;14.88;88.71;101450.91;4900962;29;20047;-94
2022/10/17 02:49:06;;;;;;;14.35;9.68;;;;;;;14.84;87.83;101449.34;4900739;29;20032;-95
2022/10/17 02:51:58;;;;;;;10.02;8.75;;;;;;;14.78;87.49;101445.16;4917845;29;20032;-94
2022/10/17 02:54:30;;;;;;;;;;;;;;;14.92;86.12;101451.59;4918172;29;20070;-94
2022/10/17 02:57:19;;;;;;;15.23;10.05;;;;;;;14.86;87.89;101450.09;4917915;29;19967;-93
2022/10/17 02:59:45;;;;;;;15.13;9.45;;;;;;;14.82;88.32;101431.69;4917108;29;20035;-94
2022/10/17 03:02:11;;;;;;;11.98;9.60;;;;;;;14.94;88.34;101442.63;4917603;29;20032;-94
2022/10/17 03:04:36;;;;;;;17.30;11.02;;;;;;;14.95;88.92;101443.47;4917542;29;20088;-94
2022/10/17 03:07:02;;;;;;;13.50;9.68;;;;;;;14.91;88.60;101437.44;4917685;29;20054;-94
2022/10/17 03:09:27;;;;;;;12.68;10.13;;;;;;;14.89;88.40;101439.31;4900420;29;20088;-94
2022/10/17 03:11:52;;;;;;;16.67;9.13;;;;;;;14.85;87.31;101445.72;4917658;29;20099;-93
2022/10/17 03:14:18;;;;;;;15.40;10.38;;;;;;;14.91;88.50;101445.41;4900432;29;20063;-93
2022/10/17 03:16:43;;;;;;;14.20;8.98;;;;;;;14.84;87.47;101440.47;4917416;29;20032;-94
2022/10/17 03:19:08;;;;;;;13.45;10.02;;;;;;;14.88;88.65;101448.25;4917352;29;20448;-94
2022/10/17 03:21:36;;;;;;;14.93;9.88;;;;;;;14.91;88.20;101448.06;4917340;29;20028;-94
2022/10/17 03:24:02;;;;;;;16.58;10.23;;;;;;;14.86;88.83;101433.28;4917624;29;20032;-95
2022/10/17 03:26:28;;;;;;;13.23;10.55;;;;;;;14.86;88.60;101438.59;4917643;29;20066;-94
2022/10/17 03:28:54;;;;;;;15.50;10.38;;;;;;;14.89;88.85;101441.97;4917020;29;20036;-94
2022/10/17 03:31:19;;;;;;;16.48;9.88;;;;;;;14.92;88.93;101439.19;4917031;29;20036;-94
2022/10/17 03:33:44;;;;;;;14.43;9.77;;;;;;;14.94;88.59;101447.09;4900077;29;20476;-94
2022/10/17 03:36:13;;;;;;;16.13;10.23;;;;;;;14.95;89.55;101449.66;4900152;29;20075;-94
2022/10/17 03:38:38;;;;;;;15.48;10.07;;;;;;;14.99;88.81;101451.25;4900193;29;20024;-95
2022/10/17 03:41:04;;;;;;;14.65;9.65;;;;;;;14.95;88.85;101436.34;4900179;29;20038;-94
2022/10/17 03:43:30;;;;;;;11.93;8.95;;;;;;;15.03;88.81;101441.31;4900753;29;20506;-94
2022/10/17 03:45:57;;;;;;;13.57;9.57;;;;;;;15.09;89.09;101454.31;4917102;29;20107;-95
2022/10/17 03:48:23;;;;;;;12.05;9.40;;;;;;;15.11;88.92;101448.91;4916977;29;20464;-93
2022/10/17 03:50:48;;;;;;;15.02;10.23;;;;;;;15.14;89.81;101432.78;4916870;29;20034;-94
2022/10/17 03:53:14;;;;;;;11.60;9.30;;;;;;;15.18;89.53;101421.91;4918009;29;20028;-94
2022/10/17 03:55:39;;;;;;;15.63;9.43;;;;;;;15.26;89.15;101424.19;4902382;29;20058;-95
2022/10/17 03:58:04;;;;;;;13.65;9.05;;;;;;;15.28;89.34;101430.28;4921519;29;20484;-93
2022/10/17 04:00:30;;;;;;;13.45;9.93;;;;;;;15.35;89.89;101430.84;4920479;29;20083;-94
2022/10/17 04:02:57;;;;;;;12.13;9.48;;;;;;;15.44;88.89;101444.56;4922741;29;20043;-95
2022/10/17 04:05:23;;;;;;;13.95;9.55;;;;;;;15.44;89.20;101446.38;4929497;29;20028;-94
2022/10/17 04:07:48;;;;;;;12.65;9.65;;;;;;;15.41;89.40;101438.53;4913331;29;20031;-95
2022/10/17 04:10:13;;;;;;;13.27;10.07;;;;;;;15.44;89.29;101447.25;4912920;29;20043;-94
2022/10/17 04:12:39;;;;;;;14.55;9.57;;;;;;;15.45;89.17;101445.44;4931850;29;20476;-94
2022/10/17 04:15:05;;;;;;;17.13;8.88;;;;;;;15.46;88.95;101449.81;4913396;29;20058;-94
2022/10/17 04:17:31;;;;;;;15.43;9.45;;;;;;;15.50;89.09;101454.06;4930918;29;20032;-94
2022/10/17 04:19:56;;;;;;;13.57;8.85;;;;;;;15.50;88.68;101443.38;4931787;29;20047;-93
2022/10/17 04:22:21;;;;;;;14.40;9.82;;;;;;;15.49;89.03;101442.53;4927477;29;20548;-94
2022/10/17 04:24:46;;;;;;;11.32;9.00;;;;;;;15.56;89.31;101457.25;4920686;29;20020;-94
2022/10/17 04:27:12;;;;;;;13.32;8.68;;;;;;;15.65;88.98;101463.94;4920657;29;20039;-94
2022/10/17 04:29:37;;;;;;;13.50;9.60;;;;;;;15.62;89.02;101461.44;4920409;29;20453;-93
2022/10/17 04:32:03;;;;;;;14.43;9.25;;;;;;;15.56;88.68;101451.06;4920594;29;20036;-93
2022/10/17 04:34:28;;;;;;;12.05;8.20;;;;;;;15.65;89.30;101465.75;4920598;29;20020;-94
2022/10/17 04:36:54;;;;;;;14.55;9.35;;;;;;;15.70;88.84;101469.91;4920605;29;20074;-95
2022/10/17 04:39:19;;;;;;;14.75;8.63;;;;;;;15.74;88.51;101463.47;4903677;29;20552;-94
2022/10/17 04:41:44;;;;;;;10.63;8.20;;;;;;;15.76;87.93;101474.94;4903164;29;20031;-93
2022/10/17 04:44:10;;;;;;;10.60;8.20;;;;;;;15.79;88.46;101479.22;4903082;29;20486;-94
2022/10/17 04:46:35;;;;;;;11.57;8.00;;;;;;;15.79;88.89;101485.44;4920209;29;20103;-93
2022/10/17 04:49:00;;;;;;;11.60;8.88;;;;;;;15.75;88.43;101485.66;4903390;29;20055;-94
2022/10/17 04:51:26;;;;;;;9.85;8.15;;;;;;;15.76;88.34;101490.03;4903074;29;20032;-94
2022/10/17 04:53:51;;;;;;;11.82;9.50;;;;;;;15.79;88.06;101488.09;4919969;29;20083;-93
2022/10/17 04:56:20;;;;;;;11.18;8.75;;;;;;;15.74;88.68;101492.81;4919893;29;20028;-93
2022/10/17 04:58:46;;;;;;;11.75;8.90;;;;;;;15.74;88.37;101507.94;4919986;29;20486;-93
2022/10/17 05:01:15;;;;;;;12.55;7.25;;;;;;;15.64;87.70;101496.88;4919825;29;20080;-94
2022/10/17 05:03:41;;;;;;;11.15;6.97;;;;;;;15.61;88.12;101502.31;4902643;29;20098;-93
2022/10/17 05:06:09;;;;;;;10.82;8.10;;;;;;;15.65;87.81;101516.41;4919696;29;20110;-94
2022/10/17 05:08:35;;;;;;;11.30;7.85;;;;;;;15.61;88.39;101515.66;4898839;29;20040;-93
2022/10/17 05:11:01;;;;;;;11.40;8.13;;;;;;;15.60;88.48;101505.94;4883920;29;20172;-94
2022/10/17 05:13:26;;;;;;;10.63;7.38;;;;;;;15.53;87.97;101499.22;4900983;29;20048;-93
2022/10/17 05:15:52;;;;;;;12.85;8.00;;;;;;;15.59;88.80;101495.38;4900724;29;20029;-94
2022/10/17 05:18:17;;;;;;;11.90;7.65;;;;;;;15.62;88.57;101497.84;4883604;29;20033;-94
2022/10/17 05:20:43;;;;;;;11.20;7.72;;;;;;;15.59;89.29;101501.56;4883786;29;20039;-93
2022/10/17 05:23:08;;;;;;;10.15;7.55;;;;;;;15.65;89.21;101497.75;4900144;29;20032;-93
2022/10/17 05:25:33;;;;;;;11.68;8.00;;;;;;;15.70;88.98;101509.88;4900562;29;20033;-94
2022/10/17 05:27:59;;;;;;;10.05;7.85;;;;;;;15.71;88.89;101516.94;4900337;29;20052;-94
2022/10/17 05:30:24;;;;;;;12.00;8.27;;;;;;;15.66;88.41;101515.47;4900261;29;20496;-94
2022/10/17 05:32:54;;;;;;;11.13;8.23;;;;;;;15.70;89.39;101517.03;4883669;29;20035;-93
2022/10/17 05:35:20;;;;;;;13.00;7.28;;;;;;;15.70;89.34;101511.69;4883495;29;20492;-93
2022/10/17 05:37:45;;;;;;;14.10;7.75;;;;;;;15.77;89.09;101532.66;4900264;29;20053;-94
2022/10/17 05:40:11;;;;;;;10.20;7.53;;;;;;;15.79;89.22;101535.22;4900393;29;20114;-93
2022/10/17 05:42:36;;;;;;;9.75;7.35;;;;;;;15.90;89.90;101535.56;4883731;29;20032;-94
2022/10/17 05:45:03;;;;;;;11.68;8.35;;;;;;;15.91;89.57;101526.63;4900151;29;20025;-94
2022/10/17 05:47:28;;;;;;;11.13;7.50;;;;;;;15.93;88.84;101529.19;4902737;29;20075;-93
2022/10/17 05:49:53;;;;;;;11.63;8.10;;;;;;;15.99;88.90;101531.53;4918953;29;20032;-94
2022/10/17 05:52:18;;;;;;;12.07;8.25;;;;;;;15.96;88.75;101527.22;4901871;29;20024;-94
2022/10/17 05:54:44;;;;;;;9.07;7.22;;;;;;;16.06;88.75;101551.63;4918718;29;20055;-94
2022/10/17 05:57:09;;;;;;;10.18;7.85;;;;;;;16.02;88.61;101539.38;4918749;29;20032;-93
2022/10/17 05:59:34;;;;;;;9.55;7.18;;;;;;;16.07;88.73;101540.88;4901579;29;20020;-94
2022/10/17 06:02:00;;;;;;;10.18;7.90;;;;;;;16.03;88.51;101533.09;4918662;29;20164;-93
2022/10/17 06:04:26;;;;;;;10.07;7.85;;;;;;;16.11;88.92;101546.06;4922117;29;20032;-94
2022/10/17 06:06:52;;;;;;;8.73;6.95;;;;;;;16.14;88.58;101546.75;4937537;29;20443;-93
2022/10/17 06:09:17;;;;;;;8.63;7.32;;;;;;;16.12;88.70;101543.28;4937353;29;20028;-92
2022/10/17 06:11:42;;;;;;;14.50;8.35;;;;;;;16.14;88.58;101541.44;4924643;29;20032;-93
2022/10/17 06:14:08;;;;;;;12.45;7.93;;;;;;;16.10;88.62;101534.53;4901354;29;20116;-94
2022/10/17 06:16:33;;;;;;;11.27;7.07;;;;;;;16.16;88.73;101542.19;4901479;29;20020;-93
2022/10/17 06:18:58;;;;;;;10.18;7.57;;;;;;;16.20;88.69;101543.75;4918070;29;20028;-94
2022/10/17 06:21:25;;;;;;;13.05;8.38;;;;;;;16.17;88.33;101540.38;4918343;29;20059;-93
2022/10/17 06:23:51;;;;;;;15.32;8.73;;;;;;;16.24;88.17;101542.66;4918217;29;20107;-94
2022/10/17 06:26:17;;;;;;;14.77;8.23;;;;;;;16.27;88.33;101544.28;4927645;29;20488;-94
2022/10/17 06:28:43;;;;;;;11.73;8.07;;;;;;;16.28;88.77;101544.22;4908527;29;20051;-93
2022/10/17 06:31:14;;;;;;;14.02;8.40;;;;;;;16.29;88.38;101545.94;4917893;29;20052;-92
2022/10/17 06:33:39;;;;;;;11.32;7.68;;;;;;;16.32;88.48;101553.81;4900802;29;20044;-93
2022/10/17 06:36:07;;;;;;;13.48;8.40;;;;;;;16.36;88.49;101554.47;4900676;29;20032;-93
2022/10/17 06:38:34;;;;;;;10.30;8.18;;;;;;;16.31;88.39;101549.38;4918319;29;20593;-94
2022/10/17 06:41:12;;;;;;;12.10;8.18;;;;;;;16.35;88.46;101543.91;4918479;29;20490;-93
2022/10/17 06:43:38;;;;;;;9.57;7.82;;;;;;;16.27;88.33;101542.50;4901180;29;20067;-93
2022/10/17 06:46:05;;;;;;;12.82;7.88;;;;;;;16.37;88.27;101550.88;4901101;29;20127;-93
2022/10/17 06:48:30;;;;;;;10.23;8.13;;;;;;;16.41;88.01;101551.56;4901172;29;20488;-93
2022/10/17 06:51:00;;;;;;;11.57;7.65;;;;;;;16.46;88.08;101562.84;4900791;29;20028;-93
2022/10/17 06:53:27;;;;;;;11.60;7.80;;;;;;;16.51;88.20;101571.50;4900729;29;20502;-92
2022/10/17 06:55:54;;;;;;;13.30;7.32;;;;;;;16.55;87.29;101568.59;4917752;29;20036;-93
2022/10/17 06:58:19;;;;;;;9.75;8.18;;;;;;;16.68;86.89;101570.59;4900693;29;20028;-94
2022/10/17 07:00:45;;;;;;;9.20;7.22;;;;;;;16.75;87.13;101570.22;4900750;29;20035;-93
2022/10/17 07:03:10;;;;;;;11.13;7.15;;;;;;;16.82;86.60;101568.06;4917629;29;20495;-94
2022/10/17 07:05:37;;;;;;;14.15;7.10;;;;;;;16.91;86.72;101578.25;4917381;29;20024;-94
2022/10/17 07:08:03;;;;;;;9.70;6.38;;;;;;;16.95;87.02;101576.28;4900568;29;20400;-94
2022/10/17 07:10:29;;;;;;;9.82;7.47;;;;;;;16.92;86.47;101569.28;4909383;29;20123;-94
2022/10/17 07:12:54;;;;;;;11.07;6.72;;;;;;;16.97;86.05;101575.25;4908015;29;20111;-94
2022/10/17 07:15:19;;;;;;;10.32;7.18;;;;;;;17.01;86.45;101578.59;4910038;29;20029;-94
2022/10/17 07:17:49;;;;;;;8.25;6.90;;;;;;;17.03;86.18;101579.38;4918748;29;20628;-93
2022/10/17 07:20:15;;;;;;;10.90;7.35;;;;;;;17.07;85.79;101579.13;4897636;29;20028;-93
2022/10/17 07:22:40;;;;;;;11.48;6.55;;;;;;;17.09;86.04;101579.03;4910513;29;20024;-93
2022/10/17 07:25:06;;;;;;;7.57;6.25;;;;;;;17.16;85.40;101588.44;4906916;29;20097;-93
2022/10/17 07:27:31;;;;;;;8.75;7.15;;;;;;;17.13;85.20;101587.75;4927393;29;20091;-94
2022/10/17 07:29:57;;;;;;;12.05;6.85;;;;;;;17.15;84.88;101586.69;4891454;29;20520;-93
2022/10/17 07:32:23;;;;;;;10.77;6.35;;;;;;;17.21;84.05;101594.41;4913468;29;20415;-93
2022/10/17 07:34:48;;;;;;;12.25;6.82;;;;;;;17.22;84.57;101600.59;4897862;29;20043;-94
2022/10/17 07:37:13;;;;;;;7.20;6.20;;;;;;;17.19;83.91;101601.63;4891177;29;20056;-94
2022/10/17 07:39:39;;;;;;;8.05;6.15;;;;;;;17.21;83.91;101631.81;4920117;29;20078;-94
2022/10/17 07:42:06;;;;;;;10.02;6.20;;;;;;;17.26;83.75;101655.63;4900948;29;20383;-94
2022/10/17 07:44:31;;;;;;;7.70;5.80;;;;;;;17.27;83.32;101665.34;4908811;29;20551;-94
2022/10/17 07:46:56;;;;;;;7.45;6.00;;;;;;;17.33;83.38;101681.03;4910107;29;20166;-93
2022/10/17 07:49:22;;;;;;;9.75;6.15;;;;;;;17.29;83.42;101700.84;4896800;29;20148;-93
2022/10/17 07:51:48;;;;;;;10.23;6.07;;;;;;;17.33;83.01;101716.66;4897484;29;20024;-93
2022/10/17 07:54:13;;;;;;;7.53;5.93;;;;;;;17.32;83.10;101722.09;4898064;29;20028;-93
2022/10/17 07:56:41;;;;;;;12.50;5.63;;;;;;;17.33;82.89;101732.69;4910525;29;20083;-93
2022/10/17 07:59:07;;;;;;;10.93;6.53;;;;;;;17.33;82.71;101713.13;4915035;29;20373;-93
2022/10/17 08:01:32;;;;;;;10.02;6.20;;;;;;;17.43;82.74;101733.03;4882664;29;20036;-92
2022/10/17 08:03:57;;;;;;;10.55;5.50;;;;;;;17.52;82.13;101729.88;4898537;29;20024;-93
2022/10/17 08:06:23;;;;;;;6.38;5.18;;;;;;;17.54;81.85;101732.47;4912150;29;20111;-94
2022/10/17 08:08:48;;;;;;;5.78;5.28;;;;;;;17.64;82.10;101723.00;4881076;29;20063;-93
2022/10/17 08:11:14;;;;;;;8.70;5.97;;;;;;;17.64;81.89;101739.03;4900877;29;20024;-93
2022/10/17 08:13:40;;;;;;;8.20;5.88;;;;;;;17.63;81.85;101720.41;4902228;29;20040;-93
2022/10/17 08:16:08;;;;;;;7.28;6.30;;;;;;;17.67;81.98;101725.47;4915046;29;20032;-94
2022/10/17 08:18:35;;;;;;;10.90;5.45;;;;;;;17.69;82.57;101741.47;4924161;29;20029;-94
2022/10/17 08:21:07;;;;;;;10.95;5.97;;;;;;;17.62;82.29;101751.63;4920280;29;20088;-94
2022/10/17 08:23:33;;;;;;;7.72;6.05;;;;;;;17.69;82.11;101768.19;4909229;29;20079;-93
2022/10/17 08:25:59;;;;;;;8.38;6.05;;;;;;;17.60;82.11;101785.59;4904105;29;20028;-93
2022/10/17 08:28:25;;;;;;;10.90;5.53;;;;;;;17.60;82.24;101799.84;4912897;29;20029;-94
2022/10/17 08:30:50;;;;;;;10.70;5.85;;;;;;;17.58;82.44;101798.22;4896049;29;20057;-93
2022/10/17 08:33:15;;;;;;;7.53;6.80;;;;;;;17.57;82.72;101804.47;4918232;29;20031;-92
2022/10/17 08:35:41;;;;;;;8.48;6.10;;;;;;;17.54;83.27;101791.31;4929803;29;20462;-92
2022/10/17 08:38:06;;;;;;;11.68;6.95;;;;;;;17.52;84.06;101803.88;4904725;29;20079;-93
2022/10/17 08:40:35;;;;;;;10.15;6.80;;;;;;;17.51;84.35;101804.81;4916857;29;20071;-93
2022/10/17 08:43:13;;;;;;;9.15;6.32;;;;;;;17.51;84.31;101786.97;4918949;29;20475;-92
2022/10/17 08:45:47;;;;;;;9.90;6.70;;;;;;;17.48;84.67;101789.78;4914268;29;20060;-92
2022/10/17 08:48:17;;;;;;;8.32;7.00;;;;;;;17.42;84.90;101797.28;4880918;29;20060;-92
2022/10/17 08:50:48;;;;;;;13.50;7.07;;;;;;;17.47;85.02;101805.94;4912878;29;20044;-93
2022/10/17 08:53:34;;;;;;;12.45;6.90;;;;;;;17.48;85.67;101804.97;4909102;29;20050;-93
2022/10/17 08:56:13;;;;;;;10.50;7.25;;;;;;;17.40;85.70;101791.19;4897308;29;20032;-93
2022/10/17 08:58:38;;;;;;;11.98;6.88;;;;;;;17.32;85.38;101786.22;4902457;29;20099;-94
2022/10/17 09:01:08;;;;;;;12.07;7.63;;;;;;;17.38;85.80;101785.03;4898776;29;20434;-93
2022/10/17 09:03:48;;;;;;;11.00;8.07;;;;;;;17.38;86.20;101777.03;4936509;29;20024;-93
2022/10/17 09:06:20;;;;;;;10.88;7.90;;;;;;;17.37;86.52;101788.66;4937058;29;20438;-93
2022/10/17 09:09:10;;;;;;;11.68;7.18;;;;;;;17.47;86.18;101795.25;4929279;29;20028;-94
2022/10/17 09:12:17;;;;;;;10.88;7.00;;;;;;;17.47;85.73;101809.47;4888262;29;20062;-93
2022/10/17 09:15:09;;;;;;;8.63;7.03;;;;;;;17.43;86.06;101815.91;4901543;29;20562;-93
2022/10/17 09:17:50;;;;;;;9.40;7.32;;;;;;;17.38;86.33;101836.69;4899983;29;20490;-93
2022/10/17 09:20:23;;;;;;;11.87;7.13;;;;;;;17.35;86.27;101836.88;4899027;29;20020;-92
2022/10/17 09:23:02;;;;;;;12.48;7.28;;;;;;;17.33;85.90;101852.09;4929560;29;20027;-93
2022/10/17 09:25:34;;;;;;;9.93;6.88;;;;;;;17.27;87.17;101874.69;4902874;29;20039;-93
2022/10/17 09:28:16;;;;;;;10.90;7.27;;;;;;;17.29;86.27;101869.25;4920392;29;20488;-92
2022/10/17 09:30:48;;;;;;;9.35;8.02;;;;;;;17.20;88.34;101861.69;4918192;29;20048;-92
2022/10/17 09:33:15;;;;;;;;;;;;;;;17.27;86.21;101810.53;4917405;29;20040;-93
2022/10/17 09:35:41;;;;;;;12.48;7.57;;;;;;;17.09;88.25;101758.91;4917103;29;19911;-93
2022/10/17 09:38:17;;;;;;;10.63;7.63;;;;;;;17.15;88.56;101778.25;4904117;29;20112;-93
2022/10/17 09:40:49;;;;;;;11.77;7.93;;;;;;;17.15;89.32;101772.91;4899052;29;20126;-93
2022/10/17 09:43:14;;;;;;;11.95;8.10;;;;;;;17.13;89.41;101778.31;4915637;29;20027;-93
2022/10/17 09:46:07;;;;;;;13.02;8.40;;;;;;;17.19;89.20;101804.72;4935977;29;20388;-94
2022/10/17 09:48:36;;;;;;;;;;;;;;;17.30;87.55;101823.75;4893553;29;20040;-93
2022/10/17 09:51:02;;;;;;;12.90;7.22;;;;;;;17.18;88.63;101832.41;4904715;29;19918;-93
2022/10/17 09:53:38;;;;;;;10.73;7.70;;;;;;;17.26;89.40;101845.38;4906308;29;20044;-94
2022/10/17 09:56:11;;;;;;;11.25;8.05;;;;;;;17.21;89.35;101821.56;4933421;29;20054;-93
2022/10/17 09:58:49;;;;;;;13.13;8.90;;;;;;;17.27;89.27;101817.69;4903964;29;20115;-93
2022/10/17 10:01:24;;;;;;;12.40;8.52;;;;;;;17.30;89.65;101818.41;4890674;29;20445;-93
2022/10/17 10:04:12;;;;;;;12.30;8.30;;;;;;;17.44;89.05;101823.03;4892083;29;20123;-94
2022/10/17 10:06:39;;;;;;;10.30;8.07;;;;;;;17.42;89.09;101799.97;4888720;29;20192;-93
2022/10/17 10:09:08;;;;;;;11.75;8.18;;;;;;;17.49;89.12;101801.38;4915562;29;20115;-94
2022/10/17 10:11:53;;;;;;;10.80;7.45;;;;;;;17.57;88.78;101807.16;4896917;29;20039;-94
2022/10/17 10:14:33;;;;;;;11.80;8.55;;;;;;;17.63;88.70;101822.03;4899849;29;20039;-94
2022/10/17 10:17:00;;;;;;;12.90;8.18;;;;;;;17.57;88.67;101821.38;4934791;29;20333;-93
2022/10/17 10:19:36;;;;;;;12.20;8.90;;;;;;;17.51;88.63;101839.59;4899264;29;20044;-94
2022/10/17 10:22:05;;;;;;;15.77;8.18;;;;;;;17.52;88.76;101844.84;4899000;29;20028;-94
2022/10/17 10:24:31;;;;;;;11.30;7.88;;;;;;;17.51;88.58;101851.13;4917974;29;20040;-94
2022/10/17 10:27:01;;;;;;;11.57;7.50;;;;;;;17.48;88.65;101853.09;4901914;29;20483;-94
2022/10/17 10:29:38;;;;;;;9.27;7.80;;;;;;;17.55;88.83;101862.53;4924764;29;20044;-94
2022/10/17 10:32:33;;;;;;;12.48;7.78;;;;;;;17.57;88.96;101877.53;4898551;29;20024;-94
2022/10/17 10:35:18;;;;;;;9.88;6.78;;;;;;;17.56;88.23;101875.81;4898919;29;20165;-94
2022/10/17 10:37:48;;;;;;;9.85;6.65;;;;;;;17.52;88.51;101862.69;4899112;29;20067;-94
2022/10/17 10:40:36;;;;;;;11.63;7.45;;;;;;;17.67;87.84;101869.03;4903793;29;20038;-95
2022/10/17 10:43:03;;;;;;;7.90;6.90;;;;;;;17.71;87.70;101884.84;4914031;29;20431;-95
2022/10/17 10:45:41;;;;;;;8.48;6.57;;;;;;;17.83;87.36;101894.06;4919003;29;20086;-94
2022/10/17 10:48:22;;;;;;;9.07;5.97;;;;;;;17.84;86.93;101896.63;4906482;29;20130;-94
2022/10/17 10:51:13;;;;;;;9.65;6.55;;;;;;;17.82;86.88;101913.75;4903874;29;20092;-94
2022/10/17 10:53:50;;;;;;;10.27;6.43;;;;;;;17.77;86.78;101922.00;4895181;29;20039;-94
2022/10/17 10:56:28;;;;;;;12.50;6.30;;;;;;;17.77;87.14;101931.84;4915198;29;20457;-94
2022/10/17 10:59:44;;;;;;;8.88;6.15;;;;;;;17.72;86.94;101921.34;4890126;29;20082;-95
2022/10/17 11:02:38;;;;;;;12.88;6.13;;;;;;;17.75;87.19;101929.22;4894519;29;20040;-94
2022/10/17 11:05:19;;;;;;;7.10;6.15;;;;;;;17.77;86.95;101919.34;4913685;29;20054;-94
2022/10/17 11:08:24;;;;;;;7.30;6.20;;;;;;;17.73;86.74;101920.44;4908526;29;20028;-94
2022/10/17 11:10:59;;;;;;;8.65;6.43;;;;;;;17.78;86.77;101931.75;4892628;29;20043;-94
2022/10/17 11:13:31;;;;;;;9.43;6.72;;;;;;;17.72;86.66;101916.00;4915071;29;20100;-96
2022/10/17 11:16:06;;;;;;;;;;;;;;;18.00;85.83;101930.59;4905007;29;20024;-95
2022/10/17 11:18:58;;;;;;;7.68;6.07;;;;;;;17.98;86.25;101946.75;4932450;29;19914;-95
2022/10/17 11:21:46;;;;;;;11.30;6.85;;;;;;;17.97;86.38;101947.69;4905308;29;20412;-95
2022/10/17 11:24:17;;;;;;;8.02;6.05;;;;;;;17.87;86.45;101943.78;4917998;29;20483;-94
2022/10/17 11:27:01;;;;;;;10.30;6.18;;;;;;;17.95;85.72;101946.03;4931564;29;20043;-93
2022/10/17 11:29:31;;;;;;;9.90;6.85;;;;;;;17.99;86.58;101960.97;4920476;29;20052;-93
2022/10/17 11:32:02;;;;;;;13.40;7.38;;;;;;;17.87;86.78;101956.31;4919918;29;20543;-94
2022/10/17 11:34:31;;;;;;;8.13;7.30;;;;;;;17.89;87.04;101962.41;4900428;29;20488;-94